Time;durP1;ratioP1;P1;durP2;ratioP2;P2;SDS_P1;SDS_P2;PMS_P1;PMS_P2;Temp;Humidity;BMP_temperature;BMP_pressure;BME280_temperature;BME280_humidity;BME280_pressure;Samples;Min_cycle;Max_cycle;Signal;HPM_P1;HPM_P2
2023/04/27 00:01:34;;;;;;;7.78;5.13;;;4.20;99.90;;;;;;5137030;27;20110;-57
2023/04/27 00:04:03;;;;;;;7.75;5.50;;;4.30;99.90;;;;;;5137290;27;20080;-57
2023/04/27 00:06:29;;;;;;;13.23;6.67;;;4.30;99.90;;;;;;5137570;27;20049;-57
2023/04/27 00:08:54;;;;;;;9.25;5.43;;;4.30;99.90;;;;;;5137001;27;20272;-58
2023/04/27 00:11:21;;;;;;;8.13;5.60;;;4.30;99.90;;;;;;5118526;27;20047;-58
2023/04/27 00:13:47;;;;;;;9.95;5.93;;;4.40;99.90;;;;;;5137187;27;20047;-57
2023/04/27 00:16:13;;;;;;;12.52;6.72;;;4.40;99.90;;;;;;5137103;27;20042;-57
2023/04/27 00:18:38;;;;;;;11.75;5.80;;;4.40;99.90;;;;;;5136718;27;20035;-57
2023/04/27 00:21:04;;;;;;;11.45;5.93;;;4.40;99.90;;;;;;5136940;27;20457;-58
2023/04/27 00:23:30;;;;;;;8.43;5.90;;;4.50;99.90;;;;;;5136516;27;20423;-57
2023/04/27 00:25:56;;;;;;;9.15;6.18;;;4.60;99.90;;;;;;5136890;27;20039;-57
2023/04/27 00:28:21;;;;;;;9.25;6.22;;;4.70;99.90;;;;;;5136915;27;20519;-57
2023/04/27 00:30:47;;;;;;;12.27;6.43;;;4.70;99.90;;;;;;5136602;27;20524;-57
2023/04/27 00:33:13;;;;;;;11.18;6.00;;;4.70;99.90;;;;;;5136524;27;20076;-57
2023/04/27 00:35:39;;;;;;;11.45;5.97;;;4.80;99.90;;;;;;5136684;27;20050;-57
2023/04/27 00:38:04;;;;;;;11.25;6.03;;;4.90;99.90;;;;;;5136669;27;20070;-57
2023/04/27 00:40:30;;;;;;;10.77;5.53;;;4.90;99.90;;;;;;5136683;27;20050;-57
2023/04/27 00:42:56;;;;;;;10.40;6.10;;;4.90;99.90;;;;;;5136672;27;20041;-58
2023/04/27 00:45:22;;;;;;;8.10;5.70;;;4.90;99.90;;;;;;5136399;27;20043;-57
2023/04/27 00:47:48;;;;;;;12.98;5.43;;;4.90;99.90;;;;;;5136492;27;20121;-57
2023/04/27 00:50:15;;;;;;;9.88;5.80;;;5.00;99.90;;;;;;5136410;27;20043;-57
2023/04/27 00:52:40;;;;;;;12.73;6.20;;;5.00;99.90;;;;;;5135869;27;20051;-57
2023/04/27 00:55:07;;;;;;;8.38;5.80;;;5.00;99.90;;;;;;5136298;27;20488;-57
2023/04/27 00:57:33;;;;;;;10.93;6.18;;;4.90;99.90;;;;;;5136309;27;20031;-57
2023/04/27 01:00:00;;;;;;;8.38;5.60;;;4.90;99.90;;;;;;5136341;27;20430;-58
2023/04/27 01:02:26;;;;;;;12.43;6.40;;;4.80;99.90;;;;;;5135984;27;20381;-57
2023/04/27 01:04:52;;;;;;;11.05;6.30;;;4.80;99.90;;;;;;5135907;27;20046;-58
2023/04/27 01:07:23;;;;;;;8.23;6.03;;;4.70;99.90;;;;;;5136155;27;20043;-57
2023/04/27 01:09:48;;;;;;;7.93;5.60;;;4.70;99.90;;;;;;5135308;27;20042;-57
2023/04/27 01:12:14;;;;;;;11.98;6.35;;;4.70;99.90;;;;;;5135702;27;20035;-57
2023/04/27 01:14:40;;;;;;;8.60;5.97;;;4.70;99.90;;;;;;5136025;27;20035;-57
2023/04/27 01:17:05;;;;;;;7.20;5.57;;;4.70;99.90;;;;;;5136158;27;20380;-57
2023/04/27 01:19:31;;;;;;;9.27;6.85;;;4.60;99.90;;;;;;5136079;27;20353;-57
2023/04/27 01:21:57;;;;;;;10.95;6.22;;;4.50;99.90;;;;;;5135451;27;20068;-57
2023/04/27 01:24:22;;;;;;;9.30;5.68;;;4.50;99.90;;;;;;5117095;27;20069;-57
2023/04/27 01:26:50;;;;;;;9.20;6.60;;;4.50;99.90;;;;;;5136087;27;20118;-57
2023/04/27 01:29:16;;;;;;;8.35;5.45;;;4.40;99.90;;;;;;5135601;27;20043;-58
2023/04/27 01:31:42;;;;;;;7.85;6.05;;;4.30;99.90;;;;;;5135691;27;20124;-57
2023/04/27 01:34:07;;;;;;;9.25;6.25;;;4.30;99.90;;;;;;5135350;27;20035;-58
2023/04/27 01:36:33;;;;;;;9.63;5.90;;;4.20;99.90;;;;;;5135744;27;20043;-57
2023/04/27 01:38:59;;;;;;;10.05;6.57;;;4.20;99.90;;;;;;5135675;27;20063;-57
2023/04/27 01:41:24;;;;;;;9.95;6.70;;;4.20;99.90;;;;;;5135355;27;20039;-57
2023/04/27 01:43:50;;;;;;;10.15;6.40;;;4.20;99.90;;;;;;5135133;27;20031;-57
2023/04/27 01:46:16;;;;;;;9.20;5.97;;;4.10;99.90;;;;;;5135310;27;20031;-57
2023/04/27 01:48:42;;;;;;;12.93;6.43;;;4.10;99.90;;;;;;5135377;27;20054;-58
2023/04/27 01:51:08;;;;;;;11.32;6.43;;;4.00;99.90;;;;;;5134833;27;20059;-57
2023/04/27 01:53:34;;;;;;;10.18;6.07;;;4.00;99.90;;;;;;5131936;27;20115;-57
2023/04/27 01:55:59;;;;;;;10.80;5.90;;;3.90;99.90;;;;;;5155662;27;20046;-58
2023/04/27 01:58:26;;;;;;;9.73;6.50;;;3.90;99.90;;;;;;5155803;27;20031;-60
2023/04/27 02:00:52;;;;;;;9.65;5.63;;;3.90;99.90;;;;;;5155846;27;20056;-57
2023/04/27 02:03:18;;;;;;;8.20;5.90;;;3.90;99.90;;;;;;5155592;27;20047;-57
2023/04/27 02:05:43;;;;;;;11.90;6.10;;;3.80;99.90;;;;;;5137196;27;20537;-57
2023/04/27 02:08:09;;;;;;;6.82;5.70;;;3.80;99.90;;;;;;5155326;27;20042;-57
2023/04/27 02:10:35;;;;;;;9.80;6.15;;;3.80;99.90;;;;;;5155767;27;20039;-57
2023/04/27 02:13:01;;;;;;;13.63;5.97;;;3.80;99.90;;;;;;5155650;27;20070;-57
2023/04/27 02:15:27;;;;;;;11.02;6.60;;;3.80;99.90;;;;;;5155609;27;20074;-57
2023/04/27 02:17:52;;;;;;;7.35;5.85;;;3.70;99.90;;;;;;5155589;27;20087;-57
2023/04/27 02:20:18;;;;;;;10.35;5.95;;;3.60;99.90;;;;;;5154698;27;20042;-57
2023/04/27 02:22:44;;;;;;;9.93;6.32;;;3.60;99.90;;;;;;5155448;27;20129;-57
2023/04/27 02:25:12;;;;;;;10.10;6.53;;;3.50;99.90;;;;;;5155334;27;20062;-57
2023/04/27 02:27:39;;;;;;;10.07;6.03;;;3.40;99.90;;;;;;5155913;27;20685;-57
2023/04/27 02:30:05;;;;;;;10.40;6.05;;;3.30;99.90;;;;;;5155015;27;20043;-57
2023/04/27 02:32:31;;;;;;;10.60;6.90;;;3.20;99.90;;;;;;5155275;27;20042;-57
2023/04/27 02:34:57;;;;;;;11.35;6.82;;;3.20;99.90;;;;;;5154900;27;20070;-57
2023/04/27 02:37:23;;;;;;;10.13;6.50;;;3.40;99.90;;;;;;5155036;27;20078;-57
2023/04/27 02:39:48;;;;;;;9.70;6.72;;;3.40;99.90;;;;;;5136705;27;20035;-58
2023/04/27 02:42:15;;;;;;;10.57;6.47;;;3.50;99.90;;;;;;5155086;27;20041;-57
2023/04/27 02:44:40;;;;;;;8.70;6.40;;;3.40;99.90;;;;;;5155097;27;20114;-58
2023/04/27 02:47:06;;;;;;;11.25;6.35;;;3.30;99.90;;;;;;5154594;27;20114;-57
2023/04/27 02:49:32;;;;;;;9.20;6.32;;;3.40;99.90;;;;;;5154876;27;20031;-57
2023/04/27 02:51:57;;;;;;;10.05;6.55;;;3.30;99.90;;;;;;5154686;27;20055;-57
2023/04/27 02:54:24;;;;;;;7.40;6.15;;;3.30;99.90;;;;;;5154821;27;20062;-58
2023/04/27 02:56:50;;;;;;;8.68;6.43;;;3.30;99.90;;;;;;5149294;27;20049;-57
2023/04/27 02:59:16;;;;;;;7.40;6.00;;;3.20;99.90;;;;;;5150557;27;20038;-57
2023/04/27 03:01:41;;;;;;;10.90;6.78;;;3.10;99.90;;;;;;5154448;27;20056;-58
2023/04/27 03:04:07;;;;;;;8.70;6.10;;;3.20;99.90;;;;;;5154697;27;20034;-57
2023/04/27 03:06:33;;;;;;;8.10;6.32;;;3.30;99.90;;;;;;5135478;27;20046;-57
2023/04/27 03:08:58;;;;;;;11.18;6.28;;;3.30;99.90;;;;;;5154774;27;20070;-57
2023/04/27 03:11:24;;;;;;;9.52;6.03;;;3.20;99.90;;;;;;5154927;27;20057;-57
2023/04/27 03:13:50;;;;;;;6.85;5.60;;;3.30;99.90;;;;;;5136435;27;20057;-56
2023/04/27 03:16:15;;;;;;;8.20;5.70;;;3.20;99.90;;;;;;5154162;27;20042;-56
2023/04/27 03:18:41;;;;;;;10.73;5.60;;;3.20;99.90;;;;;;5154139;27;20037;-57
2023/04/27 03:21:08;;;;;;;8.55;5.47;;;2.90;99.90;;;;;;5154309;27;20031;-57
2023/04/27 03:23:34;;;;;;;8.98;5.00;;;2.80;99.90;;;;;;5136055;27;20118;-57
2023/04/27 03:26:05;;;;;;;9.43;5.80;;;2.90;99.90;;;;;;5154463;27;20148;-57
2023/04/27 03:28:30;;;;;;;6.70;5.40;;;2.90;99.90;;;;;;5154173;27;20049;-57
2023/04/27 03:30:56;;;;;;;10.80;5.45;;;2.90;99.90;;;;;;5154064;27;20038;-57
2023/04/27 03:33:22;;;;;;;9.98;5.95;;;2.90;99.90;;;;;;5158412;27;20125;-57
2023/04/27 03:35:57;;;;;;;8.98;6.35;;;2.90;99.90;;;;;;5158564;27;20041;-57
2023/04/27 03:38:24;;;;;;;10.50;6.07;;;2.90;99.90;;;;;;5158607;27;20035;-57
2023/04/27 03:40:50;;;;;;;10.38;6.05;;;2.90;99.90;;;;;;5158499;27;20122;-57
2023/04/27 03:43:15;;;;;;;8.65;6.03;;;3.00;99.90;;;;;;5158320;27;20031;-57
2023/04/27 03:45:41;;;;;;;6.85;5.35;;;3.00;99.90;;;;;;5139811;27;20058;-57
2023/04/27 03:48:07;;;;;;;8.48;5.07;;;2.90;99.90;;;;;;5139656;27;20051;-57
2023/04/27 03:50:32;;;;;;;9.45;5.30;;;2.80;99.90;;;;;;5139708;27;20078;-57
2023/04/27 03:52:58;;;;;;;7.55;4.90;;;2.80;99.90;;;;;;5153418;27;20085;-58
2023/04/27 03:55:24;;;;;;;7.55;5.53;;;2.80;99.90;;;;;;5137414;27;20043;-57
2023/04/27 03:57:50;;;;;;;5.95;4.85;;;2.70;99.90;;;;;;5136992;27;20473;-58
2023/04/27 04:00:17;;;;;;;9.43;5.05;;;2.60;99.90;;;;;;5137447;27;20057;-57
2023/04/27 04:02:43;;;;;;;10.13;6.05;;;2.50;99.90;;;;;;5137502;27;20063;-58
2023/04/27 04:05:09;;;;;;;12.15;5.68;;;2.60;99.90;;;;;;5118567;27;20485;-57
2023/04/27 04:07:35;;;;;;;10.52;5.70;;;2.60;99.90;;;;;;5118736;27;20477;-57
2023/04/27 04:10:01;;;;;;;10.13;5.97;;;2.70;99.90;;;;;;5137377;27;20046;-57
2023/04/27 04:12:27;;;;;;;12.57;6.78;;;2.70;99.90;;;;;;5137087;27;20067;-56
2023/04/27 04:14:52;;;;;;;8.65;5.95;;;2.70;99.90;;;;;;5137254;27;20445;-56
2023/04/27 04:17:18;;;;;;;9.85;6.10;;;2.80;99.90;;;;;;5136855;27;20393;-57
2023/04/27 04:19:44;;;;;;;6.90;5.50;;;2.70;99.90;;;;;;5137140;27;20457;-57
2023/04/27 04:22:10;;;;;;;9.18;6.93;;;2.70;99.90;;;;;;5136611;27;20070;-57
2023/04/27 04:24:36;;;;;;;8.70;5.75;;;2.80;99.90;;;;;;5150414;27;20050;-57
2023/04/27 04:27:02;;;;;;;8.73;6.43;;;2.80;99.90;;;;;;5157634;27;20043;-57
2023/04/27 04:29:28;;;;;;;11.60;7.43;;;2.90;99.90;;;;;;5155193;27;20478;-57
2023/04/27 04:31:55;;;;;;;8.90;7.30;;;2.80;99.90;;;;;;5157359;27;20046;-57
2023/04/27 04:34:21;;;;;;;10.60;7.63;;;2.90;99.90;;;;;;5157578;27;20098;-57
2023/04/27 04:36:50;;;;;;;12.20;7.32;;;3.00;99.90;;;;;;5157393;27;20049;-57
2023/04/27 04:39:19;;;;;;;10.88;7.47;;;2.90;99.90;;;;;;5157439;27;20039;-57
2023/04/27 04:41:45;;;;;;;8.93;6.78;;;2.90;99.90;;;;;;5156935;27;20464;-57
2023/04/27 04:44:11;;;;;;;11.48;7.47;;;3.00;99.90;;;;;;5155993;27;20033;-57
2023/04/27 04:46:37;;;;;;;12.38;8.05;;;3.00;99.90;;;;;;5157043;27;20046;-57
2023/04/27 04:49:03;;;;;;;11.35;7.70;;;3.10;99.90;;;;;;5157253;27;20553;-57
2023/04/27 04:51:29;;;;;;;11.70;8.07;;;3.10;99.90;;;;;;5156999;27;20089;-58
2023/04/27 04:53:55;;;;;;;13.02;7.50;;;3.10;99.90;;;;;;5148017;27;20070;-58
2023/04/27 04:56:21;;;;;;;9.30;6.82;;;3.10;99.90;;;;;;5136066;27;20499;-57
2023/04/27 04:58:46;;;;;;;10.73;7.80;;;3.20;99.90;;;;;;5136325;27;20046;-57
2023/04/27 05:01:12;;;;;;;10.00;7.43;;;3.30;99.90;;;;;;5136421;27;20110;-57
2023/04/27 05:03:38;;;;;;;10.77;7.22;;;3.40;99.90;;;;;;5135910;27;20495;-57
2023/04/27 05:06:04;;;;;;;11.40;8.07;;;3.40;99.90;;;;;;5100633;27;20039;-57
2023/04/27 05:08:29;;;;;;;13.38;7.78;;;3.50;99.90;;;;;;5135962;27;20082;-56
2023/04/27 05:10:55;;;;;;;13.00;7.55;;;3.50;99.90;;;;;;5136041;27;20038;-57
2023/04/27 05:13:23;;;;;;;11.40;7.65;;;3.60;99.90;;;;;;5135806;27;20406;-56
2023/04/27 05:15:49;;;;;;;9.98;6.95;;;3.60;99.90;;;;;;5135834;27;20287;-57
2023/04/27 05:18:15;;;;;;;9.50;7.57;;;3.70;99.90;;;;;;5117432;27;20031;-57
2023/04/27 05:20:40;;;;;;;9.85;7.15;;;3.90;99.90;;;;;;5117297;27;20027;-57
2023/04/27 05:23:06;;;;;;;11.18;7.05;;;3.90;99.90;;;;;;5135509;27;20540;-57
2023/04/27 05:25:32;;;;;;;9.55;6.97;;;3.90;99.90;;;;;;5135533;27;20039;-57
2023/04/27 05:27:59;;;;;;;10.52;7.00;;;4.10;99.90;;;;;;5135625;27;20091;-57
2023/04/27 05:30:25;;;;;;;8.82;6.07;;;4.10;99.90;;;;;;5135433;27;20050;-57
2023/04/27 05:32:51;;;;;;;10.40;6.60;;;4.20;99.90;;;;;;5135205;27;20042;-57
2023/04/27 05:35:17;;;;;;;7.18;6.30;;;4.30;99.90;;;;;;5135563;27;20035;-57
2023/04/27 05:37:43;;;;;;;10.30;6.53;;;4.40;99.90;;;;;;5135784;27;20467;-57
2023/04/27 05:40:09;;;;;;;12.00;5.90;;;4.50;99.90;;;;;;5135664;27;20042;-57
2023/04/27 05:42:35;;;;;;;10.63;6.03;;;4.80;99.90;;;;;;5135605;27;20038;-60
2023/04/27 05:45:02;;;;;;;10.82;5.95;;;4.90;99.90;;;;;;5135519;27;20146;-57
2023/04/27 05:47:28;;;;;;;9.88;5.10;;;5.00;99.90;;;;;;5135340;27;20139;-57
2023/04/27 05:49:53;;;;;;;8.95;6.07;;;5.10;99.90;;;;;;5135366;27;20039;-57
2023/04/27 05:52:20;;;;;;;9.18;5.55;;;5.20;99.90;;;;;;5135088;27;20055;-57
2023/04/27 05:54:49;;;;;;;7.88;4.80;;;5.40;99.90;;;;;;5135044;27;20421;-57
2023/04/27 05:57:16;;;;;;;7.15;4.65;;;5.60;99.90;;;;;;5135307;27;20050;-58
2023/04/27 05:59:42;;;;;;;10.90;5.57;;;5.90;99.90;;;;;;5134921;27;20053;-58
2023/04/27 06:02:08;;;;;;;7.68;4.93;;;6.20;99.90;;;;;;5135014;27;20060;-59
2023/04/27 06:04:35;;;;;;;8.35;4.55;;;6.50;99.90;;;;;;5135278;27;20031;-59
2023/04/27 06:07:02;;;;;;;8.23;4.25;;;6.80;99.90;;;;;;5135028;27;20054;-57
2023/04/27 06:09:29;;;;;;;7.15;4.32;;;7.00;99.90;;;;;;5134964;27;20043;-57
2023/04/27 06:11:57;;;;;;;7.38;3.90;;;7.30;99.90;;;;;;5134877;27;20043;-56
2023/04/27 06:14:23;;;;;;;7.72;3.83;;;7.40;99.90;;;;;;5134814;27;20469;-56
2023/04/27 06:16:48;;;;;;;7.53;3.90;;;7.60;99.90;;;;;;5116183;27;20042;-57
2023/04/27 06:19:14;;;;;;;7.18;3.72;;;7.70;99.90;;;;;;5134566;27;20035;-57
2023/04/27 06:21:40;;;;;;;7.13;4.07;;;8.00;99.90;;;;;;5134264;27;20091;-58
2023/04/27 06:24:06;;;;;;;6.50;3.28;;;8.10;99.90;;;;;;5139905;27;20114;-58
2023/04/27 06:26:32;;;;;;;4.93;3.17;;;8.30;99.90;;;;;;5155115;27;20042;-58
2023/04/27 06:28:58;;;;;;;5.90;3.45;;;8.50;99.90;;;;;;5155516;27;20051;-57
2023/04/27 06:31:25;;;;;;;6.32;2.90;;;8.50;99.90;;;;;;5155273;27;20131;-57
2023/04/27 06:33:50;;;;;;;4.28;2.58;;;8.70;99.90;;;;;;5154998;27;20042;-57
2023/04/27 06:36:16;;;;;;;5.47;2.95;;;8.70;99.90;;;;;;5154878;27;20035;-57
2023/04/27 06:38:42;;;;;;;9.32;3.45;;;9.00;99.90;;;;;;5155315;27;20031;-58
2023/04/27 06:41:07;;;;;;;5.60;3.10;;;9.30;99.90;;;;;;5155161;27;20031;-57
2023/04/27 06:43:33;;;;;;;8.18;2.53;;;9.40;99.90;;;;;;5136523;27;20114;-57
2023/04/27 06:45:59;;;;;;;3.78;2.78;;;9.60;99.90;;;;;;5154886;27;20087;-58
2023/04/27 06:48:25;;;;;;;5.63;2.70;;;9.80;99.90;;;;;;5155019;27;20095;-58
2023/04/27 06:50:50;;;;;;;8.50;2.63;;;10.00;99.90;;;;;;5154711;27;20081;-57
2023/04/27 06:53:16;;;;;;;4.93;2.40;;;10.20;99.90;;;;;;5154353;27;20074;-58
2023/04/27 06:55:42;;;;;;;6.72;2.50;;;10.20;99.90;;;;;;5154438;27;20400;-58
2023/04/27 06:58:07;;;;;;;7.00;2.25;;;10.40;99.90;;;;;;5154977;27;20064;-58
2023/04/27 07:00:33;;;;;;;4.70;2.20;;;10.70;99.90;;;;;;5154554;27;20041;-58
2023/04/27 07:02:59;;;;;;;6.10;2.42;;;10.90;99.90;;;;;;5154460;27;20119;-58
2023/04/27 07:05:25;;;;;;;5.22;2.22;;;11.30;99.90;;;;;;5154540;27;20091;-58
2023/04/27 07:07:51;;;;;;;4.97;1.85;;;11.50;99.90;;;;;;5154081;27;20043;-57
2023/04/27 07:10:17;;;;;;;8.18;2.55;;;11.60;99.90;;;;;;5154963;27;20039;-57
2023/04/27 07:12:42;;;;;;;3.28;1.83;;;11.80;99.90;;;;;;5135621;27;20102;-57
2023/04/27 07:15:09;;;;;;;4.60;1.73;;;11.70;99.90;;;;;;5154753;27;20075;-58
2023/04/27 07:17:35;;;;;;;6.28;2.10;;;11.80;99.90;;;;;;5154455;27;20027;-58
2023/04/27 07:20:02;;;;;;;6.13;2.20;;;11.70;99.90;;;;;;5154629;27;20376;-57
2023/04/27 07:22:28;;;;;;;4.28;2.03;;;11.60;99.90;;;;;;5154710;27;20043;-58
2023/04/27 07:24:54;;;;;;;3.15;1.63;;;11.80;99.90;;;;;;5147202;27;20035;-57
2023/04/27 07:27:19;;;;;;;3.38;1.65;;;12.20;99.90;;;;;;5154748;27;20034;-58
2023/04/27 07:29:46;;;;;;;2.67;1.40;;;12.50;99.90;;;;;;5154658;27;20057;-58
2023/04/27 07:32:11;;;;;;;3.03;1.50;;;12.50;99.90;;;;;;5154448;27;20042;-58
2023/04/27 07:34:37;;;;;;;2.85;1.50;;;12.90;99.90;;;;;;5154426;27;20039;-58
2023/04/27 07:37:04;;;;;;;3.80;1.80;;;12.80;99.90;;;;;;5154327;27;20039;-59
2023/04/27 07:39:30;;;;;;;4.03;1.58;;;12.70;99.90;;;;;;5135490;27;20082;-58
2023/04/27 07:41:57;;;;;;;3.75;2.05;;;12.90;99.90;;;;;;5154466;27;20421;-59
2023/04/27 07:44:22;;;;;;;2.55;1.50;;;13.00;99.90;;;;;;5153997;27;20038;-58
2023/04/27 07:46:48;;;;;;;1.95;1.42;;;12.90;99.90;;;;;;5154305;27;20038;-58
2023/04/27 07:49:15;;;;;;;4.80;1.70;;;13.00;99.90;;;;;;5154232;27;20045;-58
2023/04/27 07:51:41;;;;;;;5.22;1.52;;;12.90;99.90;;;;;;5153950;27;20090;-58
2023/04/27 07:54:07;;;;;;;2.15;1.42;;;13.00;99.90;;;;;;5154279;27;20050;-58
2023/04/27 07:56:33;;;;;;;3.58;1.25;;;13.10;99.90;;;;;;5153995;27;20042;-58
2023/04/27 07:58:59;;;;;;;3.55;1.40;;;13.50;99.90;;;;;;5153894;27;20049;-58
2023/04/27 08:01:25;;;;;;;3.90;1.60;;;13.50;99.90;;;;;;5153913;27;20039;-58
2023/04/27 08:03:50;;;;;;;3.78;1.55;;;13.50;99.90;;;;;;5153994;27;20043;-59
2023/04/27 08:06:17;;;;;;;4.07;1.30;;;13.50;99.90;;;;;;5153560;27;20042;-58
2023/04/27 08:08:43;;;;;;;4.80;1.52;;;13.50;99.90;;;;;;5153599;27;20031;-58
2023/04/27 08:11:10;;;;;;;4.00;1.73;;;13.90;99.90;;;;;;5154026;27;20045;-58
2023/04/27 08:13:36;;;;;;;3.40;1.45;;;14.10;99.90;;;;;;5154414;27;20121;-58
2023/04/27 08:16:01;;;;;;;2.20;1.45;;;14.10;99.20;;;;;;5154018;27;20121;-58
2023/04/27 08:18:27;;;;;;;2.67;1.58;;;14.30;98.40;;;;;;5156307;27;20453;-58
2023/04/27 08:20:54;;;;;;;3.72;1.48;;;14.20;99.50;;;;;;5157681;27;20038;-58
2023/04/27 08:23:20;;;;;;;3.35;1.40;;;14.50;99.90;;;;;;5157680;27;20133;-58
2023/04/27 08:25:46;;;;;;;3.67;1.58;;;14.70;98.40;;;;;;5157638;27;20121;-59
2023/04/27 08:28:13;;;;;;;5.85;1.45;;;14.70;97.80;;;;;;5157577;27;20499;-58
2023/04/27 08:30:41;;;;;;;2.10;1.38;;;14.40;95.90;;;;;;5157877;27;20049;-58
2023/04/27 08:33:07;;;;;;;2.30;1.00;;;14.90;98.10;;;;;;5139331;27;20043;-58
2023/04/27 08:35:33;;;;;;;3.05;1.52;;;15.20;97.30;;;;;;5157522;27;20043;-58
2023/04/27 08:37:59;;;;;;;4.10;1.35;;;15.10;95.00;;;;;;5157667;27;20504;-58
2023/04/27 08:40:24;;;;;;;3.80;1.90;;;15.20;96.40;;;;;;5157889;27;20042;-59
2023/04/27 08:42:56;;;;;;;3.05;1.38;;;15.50;97.70;;;;;;5138711;27;20054;-58
2023/04/27 08:45:23;;;;;;;4.35;1.40;;;15.50;95.20;;;;;;5157029;27;20039;-58
2023/04/27 08:47:49;;;;;;;4.00;1.40;;;15.50;96.90;;;;;;5156626;27;20052;-58
2023/04/27 08:50:15;;;;;;;4.30;1.42;;;15.20;96.10;;;;;;5156719;27;20042;-58
2023/04/27 08:52:45;;;;;;;3.35;1.65;;;15.50;96.40;;;;;;5156364;27;20051;-58
2023/04/27 08:55:11;;;;;;;5.70;1.40;;;15.80;94.70;;;;;;5148452;27;20039;-58
2023/04/27 08:57:37;;;;;;;3.15;1.60;;;15.40;95.50;;;;;;5135653;27;20118;-58
2023/04/27 09:00:11;;;;;;;3.17;1.50;;;15.30;95.00;;;;;;5135835;27;20114;-59
2023/04/27 09:02:42;;;;;;;6.53;1.70;;;15.20;95.60;;;;;;5135929;27;20472;-59
2023/04/27 09:05:15;;;;;;;3.55;1.88;;;14.70;96.30;;;;;;5136262;27;20035;-59
2023/04/27 09:07:41;;;;;;;3.88;1.70;;;14.40;94.70;;;;;;5136152;27;20106;-58
2023/04/27 09:10:07;;;;;;;3.80;1.90;;;14.60;94.80;;;;;;5117839;27;20549;-58
2023/04/27 09:12:33;;;;;;;3.45;1.70;;;14.60;94.70;;;;;;5135971;27;20031;-60
2023/04/27 09:15:02;;;;;;;4.22;1.50;;;14.60;95.00;;;;;;5135838;27;20419;-59
2023/04/27 09:17:29;;;;;;;3.13;1.88;;;14.90;95.30;;;;;;5135899;27;20062;-58
2023/04/27 09:20:07;;;;;;;7.15;2.30;;;14.60;94.40;;;;;;5135550;27;20035;-58
2023/04/27 09:22:43;;;;;;;8.30;2.43;;;14.60;94.50;;;;;;5135544;27;20397;-58
2023/04/27 09:25:09;;;;;;;3.63;2.00;;;14.50;95.60;;;;;;5140479;27;20426;-58
2023/04/27 09:27:37;;;;;;;4.82;1.70;;;14.90;95.40;;;;;;5117311;27;20039;-58
2023/04/27 09:30:12;;;;;;;4.25;2.03;;;15.40;96.90;;;;;;5142265;27;20043;-59
2023/04/27 09:32:38;;;;;;;4.35;2.25;;;15.70;95.00;;;;;;5156436;27;20035;-58
2023/04/27 09:35:20;;;;;;;5.22;2.05;;;15.60;93.70;;;;;;5156037;27;20388;-59
2023/04/27 09:37:46;;;;;;;4.90;2.15;;;15.70;94.50;;;;;;5156318;27;20039;-61
2023/04/27 09:40:13;;;;;;;5.05;1.88;;;15.70;96.00;;;;;;5156213;27;20034;-59
2023/04/27 09:42:39;;;;;;;5.57;2.38;;;15.50;95.50;;;;;;5147632;27;20027;-59
2023/04/27 09:45:06;;;;;;;7.97;2.65;;;15.50;94.70;;;;;;5145736;27;20038;-58
2023/04/27 09:47:33;;;;;;;5.35;2.40;;;15.30;95.10;;;;;;5125102;27;20445;-58
2023/04/27 09:50:00;;;;;;;4.78;2.17;;;15.50;96.00;;;;;;5136586;27;20520;-58
2023/04/27 09:52:26;;;;;;;7.00;3.10;;;15.40;95.60;;;;;;5116269;27;20485;-58
2023/04/27 09:54:55;;;;;;;5.45;2.75;;;15.30;94.90;;;;;;5137340;27;20126;-59
2023/04/27 09:57:42;;;;;;;6.72;2.67;;;15.20;95.30;;;;;;5155381;27;20039;-58
2023/04/27 10:00:29;;;;;;;4.18;2.53;;;15.00;95.90;;;;;;5155308;27;20397;-58
2023/04/27 10:03:21;;;;;;;7.40;3.08;;;15.00;96.20;;;;;;5155099;27;20114;-58
2023/04/27 10:06:02;;;;;;;10.32;3.30;;;14.70;96.50;;;;;;5136941;27;20046;-58
2023/04/27 10:08:28;;;;;;;6.68;3.10;;;14.50;96.10;;;;;;5125886;27;20046;-58
2023/04/27 10:10:54;;;;;;;5.32;3.10;;;14.50;96.30;;;;;;5145390;27;20130;-58
2023/04/27 10:13:25;;;;;;;5.60;2.90;;;14.20;96.50;;;;;;5154848;27;20121;-58
2023/04/27 10:15:51;;;;;;;5.93;3.10;;;14.10;97.20;;;;;;5135317;27;20078;-58
2023/04/27 10:18:30;;;;;;;8.48;3.25;;;14.20;97.30;;;;;;5154842;27;20031;-58
2023/04/27 10:20:57;;;;;;;3.92;2.83;;;13.90;96.10;;;;;;5136057;27;20042;-58
2023/04/27 10:23:24;;;;;;;5.38;3.13;;;13.90;97.90;;;;;;5154552;27;20084;-58
2023/04/27 10:25:51;;;;;;;5.13;3.13;;;13.80;97.20;;;;;;5149795;27;20049;-59
2023/04/27 10:28:17;;;;;;;6.45;3.50;;;13.80;98.20;;;;;;5154478;27;20043;-58
2023/04/27 10:30:48;;;;;;;6.00;3.03;;;13.70;98.60;;;;;;5149575;27;20039;-58
2023/04/27 10:33:20;;;;;;;8.57;3.28;;;13.80;97.90;;;;;;5154545;27;20035;-58
2023/04/27 10:35:57;;;;;;;6.20;3.08;;;13.50;96.30;;;;;;5149341;27;20095;-58
2023/04/27 10:38:30;;;;;;;6.93;3.17;;;13.60;97.20;;;;;;5154412;27;20031;-58
2023/04/27 10:41:00;;;;;;;7.85;3.38;;;13.80;98.00;;;;;;5139564;27;20136;-58
2023/04/27 10:43:27;;;;;;;6.03;3.50;;;13.70;97.50;;;;;;5133659;27;20039;-58
2023/04/27 10:45:54;;;;;;;6.88;3.55;;;13.70;99.00;;;;;;5138172;27;20548;-58
2023/04/27 10:48:20;;;;;;;6.05;3.30;;;13.30;97.90;;;;;;5133550;27;20039;-58
2023/04/27 10:50:46;;;;;;;6.13;3.83;;;14.00;97.40;;;;;;5133290;27;20480;-58
2023/04/27 10:53:14;;;;;;;6.65;3.63;;;14.20;97.00;;;;;;5133285;27;20058;-58
2023/04/27 10:55:40;;;;;;;6.80;3.25;;;14.20;97.60;;;;;;5140118;27;20133;-58
2023/04/27 10:58:05;;;;;;;7.03;3.58;;;14.30;97.30;;;;;;5154049;27;20506;-58
2023/04/27 11:00:35;;;;;;;7.03;3.50;;;14.30;97.40;;;;;;5130505;27;20031;-58
2023/04/27 11:03:15;;;;;;;7.35;3.63;;;14.20;96.50;;;;;;5147167;27;20038;-58
2023/04/27 11:05:42;;;;;;;6.15;3.28;;;14.30;97.20;;;;;;5153925;27;20071;-58
2023/04/27 11:08:11;;;;;;;6.93;3.30;;;14.30;97.20;;;;;;5151078;27;20034;-58
2023/04/27 11:10:42;;;;;;;8.65;3.22;;;14.40;98.30;;;;;;5149279;27;20038;-58
2023/04/27 11:13:10;;;;;;;4.65;3.75;;;14.40;98.60;;;;;;5124945;27;20039;-59
2023/04/27 11:15:53;;;;;;;10.93;3.88;;;14.60;98.60;;;;;;5133125;27;20039;-59
2023/04/27 11:18:20;;;;;;;9.38;3.90;;;14.70;96.80;;;;;;5133423;27;20035;-59
2023/04/27 11:20:51;;;;;;;10.18;3.90;;;14.80;97.20;;;;;;5133048;27;20508;-58
2023/04/27 11:23:28;;;;;;;4.97;3.40;;;14.70;97.30;;;;;;5114799;27;20043;-59
2023/04/27 11:25:55;;;;;;;6.82;3.40;;;14.50;97.40;;;;;;5116796;27;20046;-59
2023/04/27 11:28:23;;;;;;;6.65;3.70;;;14.50;96.70;;;;;;5151395;27;20034;-59
2023/04/27 11:30:55;;;;;;;8.20;3.42;;;14.30;98.00;;;;;;5143353;27;20032;-58
2023/04/27 11:33:21;;;;;;;6.30;4.05;;;14.20;97.80;;;;;;5133339;28;20050;-59
2023/04/27 11:35:47;;;;;;;6.70;3.53;;;14.10;97.40;;;;;;5114592;28;20047;-59
2023/04/27 11:38:17;;;;;;;8.18;3.67;;;13.90;96.50;;;;;;5133088;28;20099;-58
2023/04/27 11:40:43;;;;;;;6.20;4.00;;;13.70;97.50;;;;;;5133788;27;20042;-58
2023/04/27 11:43:15;;;;;;;5.38;3.30;;;13.70;97.40;;;;;;5153038;27;20038;-58
2023/04/27 11:45:43;;;;;;;9.45;4.38;;;13.50;97.90;;;;;;5153535;27;20118;-58
2023/04/27 11:48:15;;;;;;;6.13;3.73;;;13.50;98.40;;;;;;5153646;27;20083;-59
2023/04/27 11:50:52;;;;;;;5.47;3.60;;;13.40;98.40;;;;;;5134236;27;20047;-58
2023/04/27 11:53:29;;;;;;;10.32;4.22;;;13.20;97.80;;;;;;5155335;27;20138;-58
2023/04/27 11:55:55;;;;;;;11.38;4.57;;;13.10;99.60;;;;;;5153483;27;20473;-58
2023/04/27 11:58:20;;;;;;;7.55;4.55;;;13.10;98.90;;;;;;5136736;27;20035;-57
2023/04/27 12:00:46;;;;;;;8.75;4.78;;;13.10;99.90;;;;;;5138962;27;20038;-58
2023/04/27 12:03:12;;;;;;;6.57;4.45;;;13.10;99.90;;;;;;5157580;27;20485;-58
2023/04/27 12:05:48;;;;;;;9.30;3.92;;;13.00;99.90;;;;;;5138425;27;20441;-57
2023/04/27 12:08:17;;;;;;;6.72;4.47;;;13.00;99.90;;;;;;5136594;27;20477;-58
2023/04/27 12:10:44;;;;;;;12.38;5.43;;;12.80;99.90;;;;;;5137428;27;20084;-58
2023/04/27 12:13:10;;;;;;;12.98;4.28;;;12.60;99.90;;;;;;5157164;27;20536;-58
2023/04/27 12:15:36;;;;;;;8.68;3.38;;;12.40;99.90;;;;;;5157347;27;20091;-57
2023/04/27 12:18:02;;;;;;;7.28;3.97;;;12.40;99.90;;;;;;5136580;27;20043;-57
2023/04/27 12:20:27;;;;;;;5.50;3.58;;;12.40;99.90;;;;;;5136259;27;20031;-58
2023/04/27 12:22:53;;;;;;;9.63;3.22;;;12.50;99.90;;;;;;5155185;27;20039;-58
2023/04/27 12:25:20;;;;;;;6.38;3.42;;;12.70;99.90;;;;;;5138694;27;20043;-59
2023/04/27 12:27:46;;;;;;;5.72;3.15;;;12.70;99.90;;;;;;5154389;27;20051;-58
2023/04/27 12:30:13;;;;;;;5.03;3.45;;;12.70;99.90;;;;;;5156905;27;20039;-58
2023/04/27 12:32:39;;;;;;;5.65;2.88;;;12.80;99.90;;;;;;5157240;27;20030;-58
2023/04/27 12:35:09;;;;;;;5.25;2.60;;;12.90;99.90;;;;;;5139954;27;20031;-59
2023/04/27 12:37:35;;;;;;;5.22;3.47;;;13.00;99.90;;;;;;5135203;27;20087;-58
2023/04/27 12:40:05;;;;;;;4.90;3.53;;;13.00;99.90;;;;;;5135876;27;20035;-58
2023/04/27 12:42:31;;;;;;;6.57;3.33;;;13.20;99.90;;;;;;5135955;27;20118;-58
2023/04/27 12:44:57;;;;;;;7.45;4.25;;;13.30;99.90;;;;;;5136334;27;20114;-58
2023/04/27 12:47:23;;;;;;;6.72;3.40;;;13.50;99.90;;;;;;5135777;27;20073;-58
2023/04/27 12:49:49;;;;;;;5.70;2.95;;;13.60;99.90;;;;;;5135719;27;20370;-58